sensor_id;sensor_type;location;lat;lon;timestamp;P1;durP1;ratioP1;P2;durP2;ratioP2
62401;SDS011;48440;51.224;22.506;2024-03-02T00:01:04;26.55;;;14.90;;
62401;SDS011;48440;51.224;22.506;2024-03-02T00:03:30;24.45;;;14.20;;
62401;SDS011;48440;51.224;22.506;2024-03-02T00:05:55;25.08;;;14.73;;
62401;SDS011;48440;51.224;22.506;2024-03-02T00:08:24;23.27;;;13.45;;
62401;SDS011;48440;51.224;22.506;2024-03-02T00:10:57;28.15;;;15.13;;
62401;SDS011;48440;51.224;22.506;2024-03-02T00:13:23;24.67;;;14.05;;
62401;SDS011;48440;51.224;22.506;2024-03-02T00:15:53;22.30;;;13.73;;
62401;SDS011;48440;51.224;22.506;2024-03-02T00:18:21;24.98;;;15.20;;
62401;SDS011;48440;51.224;22.506;2024-03-02T00:20:54;24.15;;;14.57;;
62401;SDS011;48440;51.224;22.506;2024-03-02T00:23:22;29.33;;;15.98;;
62401;SDS011;48440;51.224;22.506;2024-03-02T00:25:48;26.33;;;15.80;;
62401;SDS011;48440;51.224;22.506;2024-03-02T00:30:55;31.52;;;16.90;;
62401;SDS011;48440;51.224;22.506;2024-03-02T00:33:43;30.00;;;17.40;;
62401;SDS011;48440;51.224;22.506;2024-03-02T00:36:11;28.70;;;17.20;;
62401;SDS011;48440;51.224;22.506;2024-03-02T00:38:49;29.90;;;16.98;;
62401;SDS011;48440;51.224;22.506;2024-03-02T00:43:50;37.60;;;19.95;;
62401;SDS011;48440;51.224;22.506;2024-03-02T00:46:26;32.80;;;18.88;;
62401;SDS011;48440;51.224;22.506;2024-03-02T00:48:55;32.45;;;19.75;;
62401;SDS011;48440;51.224;22.506;2024-03-02T00:51:23;32.42;;;19.05;;
62401;SDS011;48440;51.224;22.506;2024-03-02T00:53:51;36.13;;;19.92;;
62401;SDS011;48440;51.224;22.506;2024-03-02T00:56:18;33.53;;;18.75;;
62401;SDS011;48440;51.224;22.506;2024-03-02T00:58:44;34.78;;;19.40;;
62401;SDS011;48440;51.224;22.506;2024-03-02T01:01:10;37.15;;;19.70;;
62401;SDS011;48440;51.224;22.506;2024-03-02T01:03:35;40.08;;;21.02;;
62401;SDS011;48440;51.224;22.506;2024-03-02T01:06:02;39.20;;;21.48;;
62401;SDS011;48440;51.224;22.506;2024-03-02T01:08:28;37.10;;;20.42;;
62401;SDS011;48440;51.224;22.506;2024-03-02T01:10:53;39.78;;;20.65;;
62401;SDS011;48440;51.224;22.506;2024-03-02T01:13:20;38.83;;;21.45;;
62401;SDS011;48440;51.224;22.506;2024-03-02T01:15:49;39.63;;;21.00;;
62401;SDS011;48440;51.224;22.506;2024-03-02T01:18:15;41.03;;;21.80;;
62401;SDS011;48440;51.224;22.506;2024-03-02T01:20:41;41.03;;;21.90;;
62401;SDS011;48440;51.224;22.506;2024-03-02T01:23:06;44.85;;;23.00;;
62401;SDS011;48440;51.224;22.506;2024-03-02T01:25:32;40.53;;;21.83;;
62401;SDS011;48440;51.224;22.506;2024-03-02T01:27:57;36.70;;;21.10;;
62401;SDS011;48440;51.224;22.506;2024-03-02T01:30:23;40.55;;;22.63;;
62401;SDS011;48440;51.224;22.506;2024-03-02T01:32:48;41.28;;;22.63;;
62401;SDS011;48440;51.224;22.506;2024-03-02T01:35:14;38.47;;;21.02;;
62401;SDS011;48440;51.224;22.506;2024-03-02T01:37:42;37.58;;;21.77;;
62401;SDS011;48440;51.224;22.506;2024-03-02T01:40:08;39.50;;;21.27;;
62401;SDS011;48440;51.224;22.506;2024-03-02T01:42:37;40.95;;;22.27;;
62401;SDS011;48440;51.224;22.506;2024-03-02T01:45:07;37.42;;;21.02;;
62401;SDS011;48440;51.224;22.506;2024-03-02T01:47:33;42.17;;;21.77;;
62401;SDS011;48440;51.224;22.506;2024-03-02T01:50:00;35.72;;;19.38;;
62401;SDS011;48440;51.224;22.506;2024-03-02T01:52:28;38.17;;;20.58;;
62401;SDS011;48440;51.224;22.506;2024-03-02T01:54:54;37.95;;;20.50;;
62401;SDS011;48440;51.224;22.506;2024-03-02T01:57:20;33.83;;;18.40;;
62401;SDS011;48440;51.224;22.506;2024-03-02T01:59:46;39.88;;;20.15;;
62401;SDS011;48440;51.224;22.506;2024-03-02T02:02:13;36.05;;;18.73;;
62401;SDS011;48440;51.224;22.506;2024-03-02T02:04:39;31.70;;;17.75;;
62401;SDS011;48440;51.224;22.506;2024-03-02T02:07:04;32.70;;;18.33;;
62401;SDS011;48440;51.224;22.506;2024-03-02T02:09:31;36.78;;;18.27;;
62401;SDS011;48440;51.224;22.506;2024-03-02T02:11:57;39.63;;;19.02;;
62401;SDS011;48440;51.224;22.506;2024-03-02T02:14:23;34.63;;;18.35;;
62401;SDS011;48440;51.224;22.506;2024-03-02T02:16:48;32.70;;;17.77;;
62401;SDS011;48440;51.224;22.506;2024-03-02T02:19:14;33.42;;;17.73;;
62401;SDS011;48440;51.224;22.506;2024-03-02T02:21:43;34.45;;;18.67;;
62401;SDS011;48440;51.224;22.506;2024-03-02T02:24:08;38.20;;;20.33;;
62401;SDS011;48440;51.224;22.506;2024-03-02T02:26:34;35.53;;;19.48;;
62401;SDS011;48440;51.224;22.506;2024-03-02T02:29:00;39.05;;;21.60;;
62401;SDS011;48440;51.224;22.506;2024-03-02T02:31:25;34.40;;;18.70;;
62401;SDS011;48440;51.224;22.506;2024-03-02T02:33:51;33.38;;;18.80;;
62401;SDS011;48440;51.224;22.506;2024-03-02T02:36:16;39.22;;;19.67;;
62401;SDS011;48440;51.224;22.506;2024-03-02T02:38:43;39.80;;;21.25;;
62401;SDS011;48440;51.224;22.506;2024-03-02T02:41:11;38.05;;;20.73;;
62401;SDS011;48440;51.224;22.506;2024-03-02T02:43:38;38.95;;;20.33;;
62401;SDS011;48440;51.224;22.506;2024-03-02T02:46:04;39.58;;;21.05;;
62401;SDS011;48440;51.224;22.506;2024-03-02T02:48:30;42.20;;;21.05;;
62401;SDS011;48440;51.224;22.506;2024-03-02T02:50:55;40.17;;;21.60;;
62401;SDS011;48440;51.224;22.506;2024-03-02T02:53:21;43.47;;;21.85;;
62401;SDS011;48440;51.224;22.506;2024-03-02T02:55:46;41.88;;;20.58;;
62401;SDS011;48440;51.224;22.506;2024-03-02T02:58:12;38.72;;;21.20;;
62401;SDS011;48440;51.224;22.506;2024-03-02T03:00:37;41.10;;;22.20;;
62401;SDS011;48440;51.224;22.506;2024-03-02T03:03:03;41.17;;;22.73;;
62401;SDS011;48440;51.224;22.506;2024-03-02T03:05:29;44.65;;;22.38;;
62401;SDS011;48440;51.224;22.506;2024-03-02T03:07:54;40.97;;;22.40;;
62401;SDS011;48440;51.224;22.506;2024-03-02T03:10:20;42.95;;;22.50;;
62401;SDS011;48440;51.224;22.506;2024-03-02T03:12:48;43.97;;;23.55;;
62401;SDS011;48440;51.224;22.506;2024-03-02T03:15:14;46.67;;;23.45;;
62401;SDS011;48440;51.224;22.506;2024-03-02T03:17:41;42.97;;;23.10;;
62401;SDS011;48440;51.224;22.506;2024-03-02T03:20:07;47.55;;;25.02;;
62401;SDS011;48440;51.224;22.506;2024-03-02T03:22:36;45.95;;;23.58;;
62401;SDS011;48440;51.224;22.506;2024-03-02T03:25:04;44.70;;;24.05;;
62401;SDS011;48440;51.224;22.506;2024-03-02T03:27:35;50.33;;;24.67;;
62401;SDS011;48440;51.224;22.506;2024-03-02T03:30:01;54.08;;;24.90;;
62401;SDS011;48440;51.224;22.506;2024-03-02T03:32:27;52.80;;;25.27;;
62401;SDS011;48440;51.224;22.506;2024-03-02T03:34:53;49.80;;;24.40;;
62401;SDS011;48440;51.224;22.506;2024-03-02T03:37:19;51.72;;;25.90;;
62401;SDS011;48440;51.224;22.506;2024-03-02T03:39:44;51.03;;;25.50;;
62401;SDS011;48440;51.224;22.506;2024-03-02T03:42:09;52.63;;;25.60;;
62401;SDS011;48440;51.224;22.506;2024-03-02T03:44:35;52.05;;;25.85;;
62401;SDS011;48440;51.224;22.506;2024-03-02T03:47:00;54.30;;;25.70;;
62401;SDS011;48440;51.224;22.506;2024-03-02T03:49:27;59.47;;;28.15;;
62401;SDS011;48440;51.224;22.506;2024-03-02T03:51:53;53.55;;;27.27;;
62401;SDS011;48440;51.224;22.506;2024-03-02T03:54:19;58.35;;;27.65;;
62401;SDS011;48440;51.224;22.506;2024-03-02T03:56:44;59.40;;;28.85;;
62401;SDS011;48440;51.224;22.506;2024-03-02T03:59:10;57.38;;;26.75;;
62401;SDS011;48440;51.224;22.506;2024-03-02T04:01:35;55.28;;;26.02;;
62401;SDS011;48440;51.224;22.506;2024-03-02T04:04:01;55.15;;;26.83;;
62401;SDS011;48440;51.224;22.506;2024-03-02T04:06:29;60.53;;;28.15;;
62401;SDS011;48440;51.224;22.506;2024-03-02T04:08:55;60.35;;;28.33;;
62401;SDS011;48440;51.224;22.506;2024-03-02T04:11:20;54.72;;;26.80;;
62401;SDS011;48440;51.224;22.506;2024-03-02T04:13:46;56.03;;;25.83;;
62401;SDS011;48440;51.224;22.506;2024-03-02T04:16:12;55.15;;;26.10;;
62401;SDS011;48440;51.224;22.506;2024-03-02T04:18:37;52.00;;;26.77;;
62401;SDS011;48440;51.224;22.506;2024-03-02T04:21:04;56.05;;;26.27;;
62401;SDS011;48440;51.224;22.506;2024-03-02T04:23:30;55.75;;;25.63;;
62401;SDS011;48440;51.224;22.506;2024-03-02T04:25:56;50.80;;;25.60;;
62401;SDS011;48440;51.224;22.506;2024-03-02T04:28:21;51.30;;;25.15;;
62401;SDS011;48440;51.224;22.506;2024-03-02T04:30:51;50.15;;;25.27;;
62401;SDS011;48440;51.224;22.506;2024-03-02T04:33:28;58.35;;;27.15;;
62401;SDS011;48440;51.224;22.506;2024-03-02T04:38:56;59.55;;;28.15;;
62401;SDS011;48440;51.224;22.506;2024-03-02T04:41:43;69.63;;;29.75;;
62401;SDS011;48440;51.224;22.506;2024-03-02T04:44:17;66.07;;;28.67;;
62401;SDS011;48440;51.224;22.506;2024-03-02T04:47:33;66.47;;;27.85;;
62401;SDS011;48440;51.224;22.506;2024-03-02T04:50:31;73.05;;;28.92;;
62401;SDS011;48440;51.224;22.506;2024-03-02T04:53:17;73.13;;;28.80;;
62401;SDS011;48440;51.224;22.506;2024-03-02T04:55:56;70.57;;;28.45;;
62401;SDS011;48440;51.224;22.506;2024-03-02T04:59:04;61.58;;;28.23;;
62401;SDS011;48440;51.224;22.506;2024-03-02T05:01:38;74.93;;;30.23;;
62401;SDS011;48440;51.224;22.506;2024-03-02T05:04:30;65.38;;;26.85;;
62401;SDS011;48440;51.224;22.506;2024-03-02T05:06:55;74.00;;;29.08;;
62401;SDS011;48440;51.224;22.506;2024-03-02T05:09:24;70.15;;;29.35;;
62401;SDS011;48440;51.224;22.506;2024-03-02T05:12:00;73.45;;;28.80;;
62401;SDS011;48440;51.224;22.506;2024-03-02T05:15:02;60.75;;;27.58;;
62401;SDS011;48440;51.224;22.506;2024-03-02T05:17:32;67.45;;;28.00;;
62401;SDS011;48440;51.224;22.506;2024-03-02T05:20:02;65.32;;;27.27;;
62401;SDS011;48440;51.224;22.506;2024-03-02T05:22:49;70.13;;;27.50;;
62401;SDS011;48440;51.224;22.506;2024-03-02T05:25:28;71.82;;;28.98;;
62401;SDS011;48440;51.224;22.506;2024-03-02T05:28:04;75.50;;;29.90;;
62401;SDS011;48440;51.224;22.506;2024-03-02T05:30:38;68.20;;;28.27;;
62401;SDS011;48440;51.224;22.506;2024-03-02T05:33:12;75.10;;;28.25;;
62401;SDS011;48440;51.224;22.506;2024-03-02T05:36:00;64.70;;;28.73;;
62401;SDS011;48440;51.224;22.506;2024-03-02T05:38:35;66.60;;;27.35;;
62401;SDS011;48440;51.224;22.506;2024-03-02T05:41:03;71.15;;;27.83;;
62401;SDS011;48440;51.224;22.506;2024-03-02T05:43:34;79.78;;;29.15;;
62401;SDS011;48440;51.224;22.506;2024-03-02T05:46:08;73.95;;;29.65;;
62401;SDS011;48440;51.224;22.506;2024-03-02T05:48:48;72.63;;;27.65;;
62401;SDS011;48440;51.224;22.506;2024-03-02T05:51:13;69.47;;;28.63;;
62401;SDS011;48440;51.224;22.506;2024-03-02T05:53:39;67.40;;;28.08;;
62401;SDS011;48440;51.224;22.506;2024-03-02T05:56:05;72.20;;;27.52;;
62401;SDS011;48440;51.224;22.506;2024-03-02T05:58:31;80.90;;;30.65;;
62401;SDS011;48440;51.224;22.506;2024-03-02T06:01:08;66.45;;;28.25;;
62401;SDS011;48440;51.224;22.506;2024-03-02T06:03:34;71.78;;;30.23;;
62401;SDS011;48440;51.224;22.506;2024-03-02T06:05:59;76.28;;;28.45;;
62401;SDS011;48440;51.224;22.506;2024-03-02T06:08:25;64.88;;;27.52;;
62401;SDS011;48440;51.224;22.506;2024-03-02T06:10:50;68.43;;;29.58;;
62401;SDS011;48440;51.224;22.506;2024-03-02T06:13:16;65.35;;;26.98;;
62401;SDS011;48440;51.224;22.506;2024-03-02T06:15:41;65.72;;;28.02;;
62401;SDS011;48440;51.224;22.506;2024-03-02T06:18:07;63.58;;;29.55;;
62401;SDS011;48440;51.224;22.506;2024-03-02T06:20:33;69.85;;;29.83;;
62401;SDS011;48440;51.224;22.506;2024-03-02T06:22:58;72.00;;;28.17;;
62401;SDS011;48440;51.224;22.506;2024-03-02T06:25:24;68.10;;;28.40;;
62401;SDS011;48440;51.224;22.506;2024-03-02T06:28:09;66.55;;;28.65;;
62401;SDS011;48440;51.224;22.506;2024-03-02T06:30:52;63.20;;;27.48;;
62401;SDS011;48440;51.224;22.506;2024-03-02T06:33:18;60.15;;;27.90;;
62401;SDS011;48440;51.224;22.506;2024-03-02T06:35:53;58.50;;;27.88;;
62401;SDS011;48440;51.224;22.506;2024-03-02T06:38:29;63.10;;;29.23;;
62401;SDS011;48440;51.224;22.506;2024-03-02T06:41:12;63.47;;;28.33;;
62401;SDS011;48440;51.224;22.506;2024-03-02T06:43:43;70.22;;;29.25;;
62401;SDS011;48440;51.224;22.506;2024-03-02T06:50:21;67.30;;;28.77;;
62401;SDS011;48440;51.224;22.506;2024-03-02T06:52:57;64.40;;;28.40;;
62401;SDS011;48440;51.224;22.506;2024-03-02T06:55:42;63.10;;;27.35;;
62401;SDS011;48440;51.224;22.506;2024-03-02T07:01:48;66.75;;;29.30;;
62401;SDS011;48440;51.224;22.506;2024-03-02T07:05:04;57.65;;;27.23;;
62401;SDS011;48440;51.224;22.506;2024-03-02T07:11:40;65.20;;;28.30;;
62401;SDS011;48440;51.224;22.506;2024-03-02T07:26:20;49.80;;;25.25;;
62401;SDS011;48440;51.224;22.506;2024-03-02T07:28:47;51.47;;;25.50;;
62401;SDS011;48440;51.224;22.506;2024-03-02T07:31:14;54.75;;;24.52;;
62401;SDS011;48440;51.224;22.506;2024-03-02T07:36:49;46.45;;;24.27;;
62401;SDS011;48440;51.224;22.506;2024-03-02T07:39:26;44.63;;;24.05;;
62401;SDS011;48440;51.224;22.506;2024-03-02T07:42:22;56.42;;;26.20;;
62401;SDS011;48440;51.224;22.506;2024-03-02T07:45:00;46.42;;;23.50;;
62401;SDS011;48440;51.224;22.506;2024-03-02T07:47:56;45.63;;;22.65;;
62401;SDS011;48440;51.224;22.506;2024-03-02T07:50:31;42.17;;;21.85;;
62401;SDS011;48440;51.224;22.506;2024-03-02T07:56:40;47.75;;;22.80;;
62401;SDS011;48440;51.224;22.506;2024-03-02T07:59:09;44.17;;;21.85;;
62401;SDS011;48440;51.224;22.506;2024-03-02T08:01:50;50.53;;;23.83;;
62401;SDS011;48440;51.224;22.506;2024-03-02T08:04:48;40.17;;;21.42;;
62401;SDS011;48440;51.224;22.506;2024-03-02T08:17:39;41.95;;;20.70;;
62401;SDS011;48440;51.224;22.506;2024-03-02T08:20:13;40.92;;;19.95;;
62401;SDS011;48440;51.224;22.506;2024-03-02T08:22:39;40.63;;;21.30;;
62401;SDS011;48440;51.224;22.506;2024-03-02T08:25:05;40.10;;;20.35;;
62401;SDS011;48440;51.224;22.506;2024-03-02T08:27:32;47.58;;;21.08;;
62401;SDS011;48440;51.224;22.506;2024-03-02T08:29:58;39.83;;;21.48;;
62401;SDS011;48440;51.224;22.506;2024-03-02T08:32:24;47.35;;;21.25;;
62401;SDS011;48440;51.224;22.506;2024-03-02T08:34:50;42.85;;;21.45;;
62401;SDS011;48440;51.224;22.506;2024-03-02T08:37:20;37.88;;;21.15;;
62401;SDS011;48440;51.224;22.506;2024-03-02T08:40:03;45.17;;;21.92;;
62401;SDS011;48440;51.224;22.506;2024-03-02T08:42:36;40.67;;;20.90;;
62401;SDS011;48440;51.224;22.506;2024-03-02T08:45:07;39.53;;;20.30;;
62401;SDS011;48440;51.224;22.506;2024-03-02T08:47:33;39.97;;;21.27;;
62401;SDS011;48440;51.224;22.506;2024-03-02T08:50:02;40.03;;;20.38;;
62401;SDS011;48440;51.224;22.506;2024-03-02T08:52:33;40.15;;;20.33;;
62401;SDS011;48440;51.224;22.506;2024-03-02T08:55:11;53.65;;;23.00;;
62401;SDS011;48440;51.224;22.506;2024-03-02T09:09:43;38.63;;;20.45;;
62401;SDS011;48440;51.224;22.506;2024-03-02T09:13:05;35.80;;;20.80;;
62401;SDS011;48440;51.224;22.506;2024-03-02T09:21:49;45.10;;;20.85;;
62401;SDS011;48440;51.224;22.506;2024-03-02T09:25:48;41.00;;;20.58;;
62401;SDS011;48440;51.224;22.506;2024-03-02T09:39:59;36.55;;;20.95;;
62401;SDS011;48440;51.224;22.506;2024-03-02T09:42:25;39.00;;;20.65;;
62401;SDS011;48440;51.224;22.506;2024-03-02T09:44:57;41.10;;;21.42;;
62401;SDS011;48440;51.224;22.506;2024-03-02T09:48:09;37.45;;;21.08;;
62401;SDS011;48440;51.224;22.506;2024-03-02T10:01:20;32.08;;;18.35;;
62401;SDS011;48440;51.224;22.506;2024-03-02T10:58:54;29.45;;;18.67;;
62401;SDS011;48440;51.224;22.506;2024-03-02T11:26:19;37.83;;;21.60;;
62401;SDS011;48440;51.224;22.506;2024-03-02T11:32:04;41.90;;;21.13;;
62401;SDS011;48440;51.224;22.506;2024-03-02T11:34:54;41.53;;;20.25;;
62401;SDS011;48440;51.224;22.506;2024-03-02T11:43:02;40.17;;;20.77;;
62401;SDS011;48440;51.224;22.506;2024-03-02T12:27:21;38.20;;;19.95;;
62401;SDS011;48440;51.224;22.506;2024-03-02T12:30:35;32.50;;;17.70;;
62401;SDS011;48440;51.224;22.506;2024-03-02T12:33:01;35.30;;;20.13;;
62401;SDS011;48440;51.224;22.506;2024-03-02T12:35:27;33.80;;;19.30;;
62401;SDS011;48440;51.224;22.506;2024-03-02T12:37:53;36.88;;;20.33;;
62401;SDS011;48440;51.224;22.506;2024-03-02T12:43:32;31.27;;;19.25;;
62401;SDS011;48440;51.224;22.506;2024-03-02T12:46:06;33.03;;;19.05;;
62401;SDS011;48440;51.224;22.506;2024-03-02T12:48:41;33.83;;;19.90;;
62401;SDS011;48440;51.224;22.506;2024-03-02T12:51:32;35.80;;;19.65;;
62401;SDS011;48440;51.224;22.506;2024-03-02T12:54:10;34.90;;;18.00;;
62401;SDS011;48440;51.224;22.506;2024-03-02T12:56:50;34.08;;;18.88;;
62401;SDS011;48440;51.224;22.506;2024-03-02T12:59:23;32.28;;;19.30;;
62401;SDS011;48440;51.224;22.506;2024-03-02T13:01:55;32.50;;;19.88;;
62401;SDS011;48440;51.224;22.506;2024-03-02T13:04:27;30.90;;;18.90;;
62401;SDS011;48440;51.224;22.506;2024-03-02T13:06:54;35.05;;;20.08;;
62401;SDS011;48440;51.224;22.506;2024-03-02T13:09:24;37.28;;;19.23;;
62401;SDS011;48440;51.224;22.506;2024-03-02T13:11:51;34.42;;;19.55;;
62401;SDS011;48440;51.224;22.506;2024-03-02T13:14:21;34.67;;;19.17;;
62401;SDS011;48440;51.224;22.506;2024-03-02T13:16:47;32.13;;;18.23;;
62401;SDS011;48440;51.224;22.506;2024-03-02T13:19:13;34.47;;;18.98;;
62401;SDS011;48440;51.224;22.506;2024-03-02T13:21:39;33.28;;;18.80;;
62401;SDS011;48440;51.224;22.506;2024-03-02T13:24:07;35.53;;;20.23;;
62401;SDS011;48440;51.224;22.506;2024-03-02T13:26:33;33.38;;;19.38;;
62401;SDS011;48440;51.224;22.506;2024-03-02T13:28:59;31.45;;;18.77;;
62401;SDS011;48440;51.224;22.506;2024-03-02T13:31:24;31.13;;;18.73;;
62401;SDS011;48440;51.224;22.506;2024-03-02T13:33:50;26.80;;;16.77;;
62401;SDS011;48440;51.224;22.506;2024-03-02T13:36:15;31.67;;;18.35;;
62401;SDS011;48440;51.224;22.506;2024-03-02T13:38:42;28.58;;;18.27;;
62401;SDS011;48440;51.224;22.506;2024-03-02T13:41:07;28.83;;;17.02;;
62401;SDS011;48440;51.224;22.506;2024-03-02T13:43:33;32.10;;;17.98;;
62401;SDS011;48440;51.224;22.506;2024-03-02T13:46:01;27.73;;;16.90;;
62401;SDS011;48440;51.224;22.506;2024-03-02T13:48:27;28.38;;;17.88;;
62401;SDS011;48440;51.224;22.506;2024-03-02T13:50:52;27.77;;;18.13;;
62401;SDS011;48440;51.224;22.506;2024-03-02T13:53:18;28.35;;;16.35;;
62401;SDS011;48440;51.224;22.506;2024-03-02T13:55:45;30.95;;;16.50;;
62401;SDS011;48440;51.224;22.506;2024-03-02T13:58:10;31.55;;;17.38;;
62401;SDS011;48440;51.224;22.506;2024-03-02T14:00:39;33.30;;;18.52;;
62401;SDS011;48440;51.224;22.506;2024-03-02T14:03:08;30.33;;;17.40;;
62401;SDS011;48440;51.224;22.506;2024-03-02T14:05:33;25.92;;;16.50;;
62401;SDS011;48440;51.224;22.506;2024-03-02T14:07:59;26.92;;;17.05;;
62401;SDS011;48440;51.224;22.506;2024-03-02T14:10:29;26.85;;;16.42;;
62401;SDS011;48440;51.224;22.506;2024-03-02T14:12:54;31.25;;;18.23;;
62401;SDS011;48440;51.224;22.506;2024-03-02T14:15:20;27.90;;;16.92;;
62401;SDS011;48440;51.224;22.506;2024-03-02T14:17:46;31.67;;;17.42;;
62401;SDS011;48440;51.224;22.506;2024-03-02T14:20:12;31.75;;;18.40;;
62401;SDS011;48440;51.224;22.506;2024-03-02T14:22:38;29.73;;;17.10;;
62401;SDS011;48440;51.224;22.506;2024-03-02T14:25:04;32.70;;;18.80;;
62401;SDS011;48440;51.224;22.506;2024-03-02T14:27:30;30.10;;;17.85;;
62401;SDS011;48440;51.224;22.506;2024-03-02T14:29:55;27.80;;;18.20;;
62401;SDS011;48440;51.224;22.506;2024-03-02T14:32:21;32.63;;;17.55;;
62401;SDS011;48440;51.224;22.506;2024-03-02T14:34:47;32.58;;;17.70;;
62401;SDS011;48440;51.224;22.506;2024-03-02T14:37:13;27.27;;;16.90;;
62401;SDS011;48440;51.224;22.506;2024-03-02T14:39:40;33.80;;;17.70;;
62401;SDS011;48440;51.224;22.506;2024-03-02T14:42:06;30.75;;;17.75;;
62401;SDS011;48440;51.224;22.506;2024-03-02T14:44:32;29.33;;;16.83;;
62401;SDS011;48440;51.224;22.506;2024-03-02T14:46:59;30.33;;;18.05;;
62401;SDS011;48440;51.224;22.506;2024-03-02T14:49:25;30.67;;;18.02;;
62401;SDS011;48440;51.224;22.506;2024-03-02T14:51:51;32.72;;;17.98;;
62401;SDS011;48440;51.224;22.506;2024-03-02T14:54:17;26.27;;;16.45;;
62401;SDS011;48440;51.224;22.506;2024-03-02T14:56:42;29.27;;;16.13;;
62401;SDS011;48440;51.224;22.506;2024-03-02T14:59:08;33.70;;;17.88;;
62401;SDS011;48440;51.224;22.506;2024-03-02T15:01:35;25.05;;;16.95;;
62401;SDS011;48440;51.224;22.506;2024-03-02T15:04:01;25.15;;;16.65;;
62401;SDS011;48440;51.224;22.506;2024-03-02T15:06:26;27.25;;;16.65;;
62401;SDS011;48440;51.224;22.506;2024-03-02T15:08:52;29.52;;;17.73;;
62401;SDS011;48440;51.224;22.506;2024-03-02T15:11:19;31.90;;;17.58;;
62401;SDS011;48440;51.224;22.506;2024-03-02T15:13:45;33.95;;;18.95;;
62401;SDS011;48440;51.224;22.506;2024-03-02T15:16:10;34.63;;;17.85;;
62401;SDS011;48440;51.224;22.506;2024-03-02T15:18:37;33.63;;;17.88;;
62401;SDS011;48440;51.224;22.506;2024-03-02T15:21:02;30.02;;;17.02;;
62401;SDS011;48440;51.224;22.506;2024-03-02T15:23:28;30.38;;;17.40;;
62401;SDS011;48440;51.224;22.506;2024-03-02T15:25:55;28.83;;;17.42;;
62401;SDS011;48440;51.224;22.506;2024-03-02T15:28:20;32.22;;;16.63;;
62401;SDS011;48440;51.224;22.506;2024-03-02T15:30:46;34.03;;;18.63;;
62401;SDS011;48440;51.224;22.506;2024-03-02T15:33:11;33.13;;;17.35;;
62401;SDS011;48440;51.224;22.506;2024-03-02T15:35:37;31.92;;;17.30;;
62401;SDS011;48440;51.224;22.506;2024-03-02T15:38:03;33.47;;;17.08;;
62401;SDS011;48440;51.224;22.506;2024-03-02T15:40:28;31.10;;;18.60;;
62401;SDS011;48440;51.224;22.506;2024-03-02T15:42:54;23.95;;;16.10;;
62401;SDS011;48440;51.224;22.506;2024-03-02T15:45:19;30.40;;;18.02;;
62401;SDS011;48440;51.224;22.506;2024-03-02T15:47:45;32.67;;;17.45;;
62401;SDS011;48440;51.224;22.506;2024-03-02T15:50:10;32.25;;;19.35;;
62401;SDS011;48440;51.224;22.506;2024-03-02T15:52:37;32.47;;;20.38;;
62401;SDS011;48440;51.224;22.506;2024-03-02T15:55:03;32.80;;;18.92;;
62401;SDS011;48440;51.224;22.506;2024-03-02T15:57:31;36.67;;;19.58;;
62401;SDS011;48440;51.224;22.506;2024-03-02T15:59:57;35.55;;;19.38;;
62401;SDS011;48440;51.224;22.506;2024-03-02T16:02:22;36.50;;;19.38;;
62401;SDS011;48440;51.224;22.506;2024-03-02T16:04:48;38.00;;;19.73;;
62401;SDS011;48440;51.224;22.506;2024-03-02T16:07:13;35.58;;;19.17;;
62401;SDS011;48440;51.224;22.506;2024-03-02T16:09:39;34.92;;;20.08;;
62401;SDS011;48440;51.224;22.506;2024-03-02T16:12:05;34.58;;;19.70;;
62401;SDS011;48440;51.224;22.506;2024-03-02T16:14:34;37.40;;;20.88;;
62401;SDS011;48440;51.224;22.506;2024-03-02T16:17:00;34.88;;;19.55;;
62401;SDS011;48440;51.224;22.506;2024-03-02T16:19:26;35.17;;;20.98;;
62401;SDS011;48440;51.224;22.506;2024-03-02T16:21:51;36.15;;;20.98;;
62401;SDS011;48440;51.224;22.506;2024-03-02T16:24:17;34.85;;;20.38;;
62401;SDS011;48440;51.224;22.506;2024-03-02T16:26:42;34.65;;;20.17;;
62401;SDS011;48440;51.224;22.506;2024-03-02T16:29:08;40.35;;;22.48;;
62401;SDS011;48440;51.224;22.506;2024-03-02T16:31:33;39.22;;;21.55;;
62401;SDS011;48440;51.224;22.506;2024-03-02T16:33:59;39.38;;;22.23;;
62401;SDS011;48440;51.224;22.506;2024-03-02T16:36:24;40.03;;;22.75;;
62401;SDS011;48440;51.224;22.506;2024-03-02T16:38:53;38.95;;;22.33;;
62401;SDS011;48440;51.224;22.506;2024-03-02T16:41:19;39.38;;;22.60;;
62401;SDS011;48440;51.224;22.506;2024-03-02T16:43:44;39.15;;;21.83;;
62401;SDS011;48440;51.224;22.506;2024-03-02T16:46:10;42.00;;;22.08;;
62401;SDS011;48440;51.224;22.506;2024-03-02T16:48:38;35.13;;;21.13;;
62401;SDS011;48440;51.224;22.506;2024-03-02T16:51:04;40.20;;;22.17;;
62401;SDS011;48440;51.224;22.506;2024-03-02T16:53:29;42.08;;;22.30;;
62401;SDS011;48440;51.224;22.506;2024-03-02T16:56:04;38.30;;;21.40;;
62401;SDS011;48440;51.224;22.506;2024-03-02T16:58:31;38.03;;;20.98;;
62401;SDS011;48440;51.224;22.506;2024-03-02T17:00:56;39.72;;;21.70;;
62401;SDS011;48440;51.224;22.506;2024-03-02T17:03:22;40.40;;;22.85;;
62401;SDS011;48440;51.224;22.506;2024-03-02T17:05:47;37.92;;;21.75;;
62401;SDS011;48440;51.224;22.506;2024-03-02T17:08:13;34.20;;;19.80;;
62401;SDS011;48440;51.224;22.506;2024-03-02T17:10:39;41.80;;;21.90;;
62401;SDS011;48440;51.224;22.506;2024-03-02T17:13:05;38.85;;;21.13;;
62401;SDS011;48440;51.224;22.506;2024-03-02T17:15:30;43.15;;;22.55;;
62401;SDS011;48440;51.224;22.506;2024-03-02T17:17:56;42.58;;;21.95;;
62401;SDS011;48440;51.224;22.506;2024-03-02T17:20:21;41.35;;;21.58;;
62401;SDS011;48440;51.224;22.506;2024-03-02T17:22:47;46.17;;;23.80;;
62401;SDS011;48440;51.224;22.506;2024-03-02T17:25:12;41.40;;;23.05;;
62401;SDS011;48440;51.224;22.506;2024-03-02T17:27:38;41.38;;;22.52;;
62401;SDS011;48440;51.224;22.506;2024-03-02T17:30:03;47.50;;;23.10;;
62401;SDS011;48440;51.224;22.506;2024-03-02T17:32:29;40.05;;;24.38;;
62401;SDS011;48440;51.224;22.506;2024-03-02T17:34:55;44.72;;;25.98;;
62401;SDS011;48440;51.224;22.506;2024-03-02T17:37:21;46.00;;;25.95;;
62401;SDS011;48440;51.224;22.506;2024-03-02T17:39:47;46.85;;;27.42;;
62401;SDS011;48440;51.224;22.506;2024-03-02T17:42:15;59.13;;;30.25;;
62401;SDS011;48440;51.224;22.506;2024-03-02T17:44:47;56.17;;;30.60;;
62401;SDS011;48440;51.224;22.506;2024-03-02T17:47:13;59.40;;;30.45;;
62401;SDS011;48440;51.224;22.506;2024-03-02T17:49:41;59.00;;;30.92;;
62401;SDS011;48440;51.224;22.506;2024-03-02T17:52:06;62.40;;;34.33;;
62401;SDS011;48440;51.224;22.506;2024-03-02T17:54:32;62.92;;;33.60;;
62401;SDS011;48440;51.224;22.506;2024-03-02T17:57:00;60.30;;;33.80;;
62401;SDS011;48440;51.224;22.506;2024-03-02T17:59:27;62.67;;;34.60;;
62401;SDS011;48440;51.224;22.506;2024-03-02T18:01:56;65.10;;;32.47;;
62401;SDS011;48440;51.224;22.506;2024-03-02T18:04:22;60.03;;;31.85;;
62401;SDS011;48440;51.224;22.506;2024-03-02T18:06:48;61.28;;;31.75;;